Oliver, Georgia
Current Conditions -  °F | °C
As of 3:55 PM on Thursday 18 Dec 2014 (Local Time) from KJYL Reporting Station
Clear Clear  
Wind Chill: 62°   Ceiling: Unl
Heat Index: 62°   Visibility: 10mi
Dew Point: 42°   Wind: 0mph
Humidity: 48%   Direction: NA
Pressure: 30.09"   Gusts: NA
Location:  32.52°N, 81.53°W
Report Text: KJYL 182055Z AUTO 00000KT 10SM CLR 17/05 A3009 RMK AO2 T01660054
Loading
Personal Weather Stations






























Interactive Weather Map New forecast layout! Learn more

10-Day Weather Forecast

Advertisements
Track Severe Weather on mobile